Time;durP1;ratioP1;P1;durP2;ratioP2;P2;SDS_P1;SDS_P2;PMS_P1;PMS_P2;Temp;Humidity;BMP_temperature;BMP_pressure;BME280_temperature;BME280_humidity;BME280_pressure;Samples;Min_cycle;Max_cycle;Signal;HPM_P1;HPM_P2
2023/03/21 05:19:39;;;;;;;15.60;7.87;;;;;;;7.69;54.74;100418.69;22720180;23;20314;-92
2023/03/21 05:29:41;;;;;;;12.03;7.37;;;;;;;7.94;53.79;100420.81;20041472;29;20592;-91
2023/03/21 05:39:45;;;;;;;13.47;7.33;;;;;;;7.53;54.42;100415.41;20040625;29;20223;-92
2023/03/21 05:49:56;;;;;;;11.47;6.83;;;;;;;7.32;54.93;100423.53;20041332;29;20202;-89
2023/03/21 06:00:00;;;;;;;13.67;6.10;;;;;;;7.96;53.45;100429.75;20075350;29;20272;-89
2023/03/21 06:10:05;;;;;;;14.27;6.47;;;;;;;7.58;56.45;100403.22;20051850;29;20199;-91
2023/03/21 06:20:08;;;;;;;11.25;6.40;;;;;;;7.92;56.65;100422.28;19988549;29;20284;-92
2023/03/21 06:30:17;;;;;;;10.00;5.80;;;;;;;7.44;59.02;100418.16;19955812;29;20208;-90
2023/03/21 06:40:34;;;;;;;10.23;6.10;;;;;;;7.85;59.15;100422.75;19973502;29;20253;-88
2023/03/21 06:50:36;;;;;;;10.40;6.17;;;;;;;7.47;60.54;100419.50;19963714;29;20203;-90
2023/03/21 07:00:39;;;;;;;9.77;5.37;;;;;;;7.44;60.49;100429.41;19955333;29;20329;-87
2023/03/21 07:10:43;;;;;;;14.53;6.67;;;;;;;8.32;59.14;100420.31;19954383;29;20200;-89
2023/03/21 07:20:50;;;;;;;10.90;5.10;;;;;;;7.61;61.28;100427.88;19974003;29;20293;-88
2023/03/21 07:30:55;;;;;;;17.17;8.33;;;;;;;7.53;61.93;100425.81;19968323;29;20237;-89
2023/03/21 07:40:58;;;;;;;9.13;5.33;;;;;;;7.17;63.61;100423.06;19980325;29;20269;-89
2023/03/21 07:51:05;;;;;;;12.17;5.43;;;;;;;7.23;63.17;100417.00;19982739;29;20528;-89
2023/03/21 08:01:09;;;;;;;12.47;4.53;;;;;;;7.49;61.63;100433.25;19967610;29;20220;-88
2023/03/21 08:11:12;;;;;;;9.47;5.60;;;;;;;7.65;62.66;100428.91;19979334;29;20199;-92
2023/03/21 08:21:14;;;;;;;14.93;5.53;;;;;;;7.50;62.45;100438.50;19997957;29;20227;-90
2023/03/21 08:31:16;;;;;;;9.93;5.00;;;;;;;7.82;61.66;100419.75;19960906;29;20196;-89
2023/03/21 08:41:20;;;;;;;15.00;5.43;;;;;;;7.57;62.72;100409.97;19979129;29;20223;-91
2023/03/21 08:51:23;;;;;;;12.23;7.55;;;;;;;8.56;60.64;100420.72;19988847;29;20207;-91
2023/03/21 09:01:26;;;;;;;10.43;5.40;;;;;;;8.02;62.17;100413.56;20013187;29;20570;-92
2023/03/21 09:11:28;;;;;;;10.55;5.53;;;;;;;8.07;63.00;100417.06;19998067;29;20196;-90
2023/03/21 09:21:31;;;;;;;11.40;6.17;;;;;;;8.07;64.12;100419.91;19942458;29;20308;-91
2023/03/21 09:31:33;;;;;;;10.27;6.27;;;;;;;7.52;66.83;100419.34;19900008;29;20494;-88
2023/03/21 09:41:56;;;;;;;15.67;8.40;;;;;;;8.00;66.60;100419.53;19912484;29;20255;-88
2023/03/21 09:52:04;;;;;;;10.87;7.03;;;;;;;7.93;66.96;100413.53;19902614;29;20594;-87
2023/03/21 10:02:21;;;;;;;14.27;6.50;;;;;;;7.57;68.23;100415.59;19925629;29;20227;-86
2023/03/21 10:12:24;;;;;;;9.43;5.37;;;;;;;8.36;66.45;100410.91;19946234;29;20208;-89
2023/03/21 10:22:26;;;;;;;8.50;4.80;;;;;;;8.20;65.93;100401.25;19963815;29;20235;-88
2023/03/21 10:32:29;;;;;;;8.30;4.33;;;;;;;8.07;67.24;100400.22;19962615;29;20247;-88
2023/03/21 10:42:32;;;;;;;7.00;3.87;;;;;;;8.09;65.94;100394.28;20003030;29;20220;-86
2023/03/21 10:52:36;;;;;;;4.75;2.58;;;;;;;8.41;64.97;100378.97;19973976;29;20203;-84
2023/03/21 11:02:39;;;;;;;6.30;2.77;;;;;;;9.02;63.29;100357.44;19972517;29;20231;-88
2023/03/21 11:12:46;;;;;;;6.57;3.13;;;;;;;8.44;63.78;100348.22;19977985;29;20204;-84
2023/03/21 11:22:49;;;;;;;4.30;3.03;;;;;;;8.34;63.53;100339.25;19993589;29;20232;-84
2023/03/21 11:32:57;;;;;;;9.23;3.75;;;;;;;8.44;64.67;100317.28;19962311;29;20191;-89
2023/03/21 11:43:21;;;;;;;7.63;2.47;;;;;;;8.73;62.48;100305.41;20012672;29;20219;-89
2023/03/21 11:53:37;;;;;;;6.45;3.20;;;;;;;9.08;61.50;100291.31;20032233;29;20195;-89
2023/03/21 12:04:04;;;;;;;4.13;2.22;;;;;;;9.23;58.81;100282.34;20012920;29;20525;-90
2023/03/21 12:14:24;;;;;;;4.70;2.67;;;;;;;9.30;58.48;100260.13;20005743;29;20261;-90
2023/03/21 12:24:50;;;;;;;6.40;2.88;;;;;;;9.52;58.67;100244.97;19984460;29;20633;-85
2023/03/21 12:35:08;;;;;;;4.68;1.52;;;;;;;9.30;58.06;100260.13;19979741;29;20204;-85
2023/03/21 12:45:26;;;;;;;5.50;1.93;;;;;;;9.09;58.16;100251.56;19985350;29;20219;-86
2023/03/21 12:55:33;;;;;;;4.03;1.67;;;;;;;9.47;56.74;100247.97;20006242;29;20256;-86
2023/03/21 13:05:56;;;;;;;4.25;1.83;;;;;;;9.29;56.11;100235.94;19974121;29;20222;-84
2023/03/21 13:16:06;;;;;;;6.65;1.92;;;;;;;9.18;57.22;100234.63;19975252;29;20224;-85
2023/03/21 13:26:11;;;;;;;3.47;1.67;;;;;;;8.89;58.53;100221.31;19991511;29;20710;-86
2023/03/21 13:36:15;;;;;;;3.17;1.97;;;;;;;9.05;58.20;100205.50;19984629;29;20203;-89
2023/03/21 13:46:24;;;;;;;7.80;2.60;;;;;;;8.66;58.56;100194.47;19970698;29;20228;-87
2023/03/21 13:56:26;;;;;;;1.67;1.53;;;;;;;8.90;57.00;100171.44;19979761;29;20674;-88
2023/03/21 14:06:50;;;;;;;4.10;2.10;;;;;;;9.11;55.57;100163.94;19960853;29;20288;-86
2023/03/21 14:16:53;;;;;;;14.87;9.00;;;;;;;9.36;54.88;100137.63;19958930;29;20258;-86
2023/03/21 14:26:55;;;;;;;7.45;4.93;;;;;;;9.19;55.60;100140.53;19955370;29;20228;-87
2023/03/21 14:36:57;;;;;;;7.82;3.38;;;;;;;9.52;54.07;100118.16;19994914;29;20669;-85
2023/03/21 14:47:02;;;;;;;2.47;1.73;;;;;;;9.62;52.79;100114.97;19968632;29;20253;-87
2023/03/21 14:57:11;;;;;;;4.75;2.92;;;;;;;9.14;52.92;100126.66;19989531;29;20593;-85
2023/03/21 15:07:27;;;;;;;5.82;2.35;;;;;;;9.40;52.99;100132.97;19959091;29;20231;-86
2023/03/21 15:17:29;;;;;;;4.65;2.53;;;;;;;9.36;53.02;100140.44;19960192;29;20240;-89
2023/03/21 15:27:37;;;;;;;3.40;2.03;;;;;;;9.72;52.96;100111.75;19980460;29;20250;-92
2023/03/21 15:37:55;;;;;;;2.90;2.00;;;;;;;9.34;53.33;100094.88;19983296;29;20605;-89
2023/03/21 15:48:01;;;;;;;4.33;2.03;;;;;;;9.37;53.97;100091.41;19981246;29;20288;-90
2023/03/21 15:58:11;;;;;;;3.33;1.87;;;;;;;9.82;52.64;100091.63;19957601;29;20201;-92
2023/03/21 16:08:21;;;;;;;2.45;1.67;;;;;;;10.00;51.02;100074.56;19956077;29;20228;-91
2023/03/21 16:18:24;;;;;;;4.90;1.97;;;;;;;10.04;51.30;100087.63;19985173;29;20660;-89
2023/03/21 16:28:26;;;;;;;7.82;3.05;;;;;;;9.68;52.74;100076.16;19975581;29;20236;-88
2023/03/21 16:38:28;;;;;;;2.80;2.13;;;;;;;9.62;52.35;100074.69;19987259;29;20366;-88
2023/03/21 16:48:31;;;;;;;2.20;1.98;;;;;;;9.69;52.37;100061.72;19948471;29;20227;-92
2023/03/21 16:58:33;;;;;;;3.83;2.45;;;;;;;9.39;53.09;100054.44;19999431;29;20504;-90
2023/03/21 17:08:36;;;;;;;2.77;2.10;;;;;;;9.78;51.81;100075.75;19953315;29;20269;-90
2023/03/21 17:18:39;;;;;;;6.47;2.60;;;;;;;9.44;53.11;100102.94;19971534;29;20235;-91
2023/03/21 17:28:42;;;;;;;11.17;6.07;;;;;;;9.30;54.24;100098.75;19958730;29;20649;-90
2023/03/21 17:38:45;;;;;;;11.27;6.40;;;;;;;8.94;55.11;100116.94;19939583;29;20208;-91
2023/03/21 17:48:48;;;;;;;37.27;16.47;;;;;;;9.09;54.49;100107.94;19940941;29;20818;-86
2023/03/21 17:58:51;;;;;;;4.90;3.10;;;;;;;8.82;55.97;100097.94;19952533;29;20200;-85
2023/03/21 18:08:54;;;;;;;28.33;17.80;;;;;;;9.24;54.48;100103.72;19929658;29;20277;-90
2023/03/21 18:18:56;;;;;;;6.25;4.00;;;;;;;9.59;53.67;100097.91;19943045;29;20288;-87
2023/03/21 18:28:59;;;;;;;9.18;7.70;;;;;;;9.75;52.47;100096.16;19928877;29;20299;-87
2023/03/21 18:39:21;;;;;;;7.70;4.53;;;;;;;9.48;53.78;100109.56;19939783;29;20561;-85
2023/03/21 18:49:24;;;;;;;9.27;6.80;;;;;;;9.69;53.28;100122.91;19937990;29;20281;-88
2023/03/21 18:59:46;;;;;;;9.50;5.07;;;;;;;9.34;54.08;100123.06;19945145;29;20304;-91
2023/03/21 19:09:50;;;;;;;14.83;8.07;;;;;;;9.60;54.52;100110.84;19944766;29;20231;-84
2023/03/21 19:20:14;;;;;;;8.70;5.37;;;;;;;9.60;54.31;100105.22;19955970;29;20529;-87
2023/03/21 19:30:16;;;;;;;14.25;7.35;;;;;;;9.37;55.91;100108.31;19949414;29;20288;-84
2023/03/21 19:40:19;;;;;;;13.70;7.33;;;;;;;9.03;58.54;100100.03;19938905;29;20252;-83
2023/03/21 19:50:27;;;;;;;6.73;5.17;;;;;;;9.09;57.50;100101.47;19967026;29;20196;-83
2023/03/21 20:00:49;;;;;;;5.40;4.72;;;;;;;9.17;56.72;100090.19;19954473;29;20691;-85
2023/03/21 20:10:51;;;;;;;6.53;4.45;;;;;;;9.12;55.63;100079.09;19959068;29;20517;-84
2023/03/21 20:20:54;;;;;;;8.50;4.72;;;;;;;9.19;55.60;100072.94;19937635;29;20263;-86
2023/03/21 20:30:59;;;;;;;6.43;3.95;;;;;;;9.37;54.48;100077.31;19933573;29;20854;-84
2023/03/21 20:41:04;;;;;;;10.50;6.85;;;;;;;9.14;56.08;100076.78;19942934;29;20224;-83
2023/03/21 20:51:09;;;;;;;4.80;3.20;;;;;;;9.31;54.74;100072.19;19947124;29;20586;-85
2023/03/21 21:01:33;;;;;;;4.87;3.73;;;;;;;9.66;53.11;100059.59;19936918;29;20228;-85
2023/03/21 21:11:35;;;;;;;6.33;4.03;;;;;;;9.25;53.13;100053.84;19955601;29;20208;-84
2023/03/21 21:21:57;;;;;;;3.93;3.27;;;;;;;8.47;54.99;100056.97;19957978;29;20504;-91
2023/03/21 21:32:04;;;;;;;6.15;2.60;;;;;;;8.87;53.56;100063.16;19968575;29;20210;-84
2023/03/21 21:42:06;;;;;;;2.72;2.35;;;;;;;8.61;54.20;100049.16;19968703;29;20296;-85
2023/03/21 21:52:12;;;;;;;4.20;3.07;;;;;;;8.77;53.63;100047.47;19962301;29;20204;-87
2023/03/21 22:02:15;;;;;;;5.33;3.03;;;;;;;9.11;52.30;100032.41;19956339;29;20232;-86
2023/03/21 22:12:17;;;;;;;4.20;2.97;;;;;;;8.55;53.76;100044.03;19974582;29;20203;-85
2023/03/21 22:22:20;;;;;;;4.28;2.92;;;;;;;8.55;53.35;100047.66;19964208;29;20713;-86
2023/03/21 22:32:22;;;;;;;3.30;2.50;;;;;;;8.37;54.29;100040.47;19959801;29;20204;-86
2023/03/21 22:42:26;;;;;;;6.33;2.93;;;;;;;8.32;54.00;100044.25;19969176;29;20293;-91
2023/03/21 22:52:28;;;;;;;4.47;2.53;;;;;;;8.57;53.87;100030.44;19956733;29;20211;-89
2023/03/21 23:02:30;;;;;;;3.70;2.27;;;;;;;8.30;54.40;100026.88;19957977;29;20216;-90
2023/03/21 23:12:32;;;;;;;2.57;2.33;;;;;;;8.27;54.70;100026.72;19935197;29;20475;-86
2023/03/21 23:22:35;;;;;;;8.47;3.53;;;;;;;8.52;54.46;100025.84;19902379;29;20278;-87
2023/03/21 23:32:37;;;;;;;3.72;3.15;;;;;;;8.31;54.75;100019.28;19900882;29;20239;-84
2023/03/21 23:42:40;;;;;;;4.72;3.40;;;;;;;8.84;53.54;100016.81;19875700;29;20538;-85
2023/03/21 23:52:43;;;;;;;4.13;3.10;;;;;;;8.71;53.68;100005.78;19909731;29;20208;-86
